createdAt,value
2022-09-12T00:01:13.097Z,3.42
2022-09-12T00:03:40.259Z,3.30
2022-09-12T00:06:21.843Z,3.42
2022-09-12T00:08:54.049Z,3.20
2022-09-12T00:11:22.085Z,3.33
2022-09-12T00:13:48.831Z,3.40
2022-09-12T00:16:22.077Z,3.25
2022-09-12T00:18:50.532Z,3.20
2022-09-12T00:21:19.302Z,3.40
2022-09-12T00:23:48.314Z,3.35
2022-09-12T00:26:16.492Z,3.22
2022-09-12T00:28:44.666Z,3.20
2022-09-12T00:31:13.752Z,3.38
2022-09-12T00:33:42.198Z,3.92
2022-09-12T00:36:16.943Z,3.47
2022-09-12T00:38:45.654Z,3.40
2022-09-12T00:41:27.364Z,2.70
2022-09-12T00:44:01.873Z,3.42
2022-09-12T00:46:54.457Z,3.10
2022-09-12T00:49:25.557Z,3.10
2022-09-12T00:52:13.130Z,2.72
2022-09-12T00:55:11.974Z,3.00
2022-09-12T00:58:01.499Z,2.92
2022-09-12T01:00:29.725Z,3.30
2022-09-12T01:03:05.025Z,3.03
2022-09-12T01:05:34.863Z,2.80
2022-09-12T01:08:04.407Z,3.20
2022-09-12T01:10:35.862Z,3.00
2022-09-12T01:13:06.747Z,3.05
2022-09-12T01:15:36.802Z,3.15
2022-09-12T01:18:20.074Z,2.78
2022-09-12T01:21:23.882Z,3.05
2022-09-12T01:24:27.781Z,2.80
2022-09-12T01:27:22.262Z,3.13
2022-09-12T01:30:10.290Z,3.05
2022-09-12T01:32:51.818Z,2.95
2022-09-12T01:35:56.979Z,3.15
2022-09-12T01:38:43.286Z,3.30
2022-09-12T01:41:28.528Z,3.15
2022-09-12T01:44:32.655Z,3.05
2022-09-12T01:47:27.757Z,3.55
2022-09-12T01:50:16.121Z,3.50
2022-09-12T01:52:48.579Z,3.60
2022-09-12T01:55:32.490Z,3.58
2022-09-12T01:58:20.317Z,3.55
2022-09-12T02:00:58.382Z,3.28
2022-09-12T02:03:31.291Z,3.70
2022-09-12T02:06:08.901Z,3.78
2022-09-12T02:08:53.017Z,4.00
2022-09-12T02:11:21.081Z,4.20
2022-09-12T02:14:08.012Z,4.20
2022-09-12T02:16:44.794Z,4.13
2022-09-12T02:19:21.205Z,4.43
2022-09-12T02:21:57.813Z,4.40
2022-09-12T02:24:33.738Z,4.30
2022-09-12T02:27:07.424Z,4.75
2022-09-12T02:29:35.747Z,4.55
2022-09-12T02:32:30.561Z,4.82
2022-09-12T02:35:07.008Z,4.38
2022-09-12T02:37:57.633Z,4.70
2022-09-12T02:40:25.956Z,4.38
2022-09-12T02:42:53.970Z,4.68
2022-09-12T02:45:21.244Z,5.10
2022-09-12T02:47:57.304Z,5.00
2022-09-12T02:50:26.282Z,5.40
2022-09-12T02:52:54.651Z,4.93
2022-09-12T02:55:22.336Z,4.82
2022-09-12T02:57:52.612Z,4.72
2022-09-12T03:00:20.578Z,4.72
2022-09-12T03:03:11.986Z,4.55
2022-09-12T03:06:02.516Z,4.93
2022-09-12T03:08:50.864Z,5.55
2022-09-12T03:11:27.498Z,5.00
2022-09-12T03:14:32.896Z,5.63
2022-09-12T03:17:17.119Z,5.55
2022-09-12T03:20:14.174Z,5.68
2022-09-12T03:22:53.834Z,6.03
2022-09-12T03:25:57.919Z,5.85
2022-09-12T03:28:26.342Z,6.43
2022-09-12T03:30:54.563Z,6.10
2022-09-12T03:33:24.345Z,6.10
2022-09-12T03:35:53.187Z,6.53
2022-09-12T03:38:20.181Z,6.65
2022-09-12T03:40:52.715Z,6.63
2022-09-12T03:43:22.554Z,7.00
2022-09-12T03:45:51.330Z,6.53
2022-09-12T03:48:19.308Z,7.32
2022-09-12T03:50:49.494Z,7.00
2022-09-12T03:53:18.577Z,6.75
2022-09-12T03:55:45.439Z,7.22
2022-09-12T03:58:12.033Z,6.93
2022-09-12T04:00:40.297Z,7.85
2022-09-12T04:03:08.695Z,6.80
2022-09-12T04:05:36.448Z,8.30
2022-09-12T04:08:03.121Z,7.05
2022-09-12T04:10:29.764Z,7.28
2022-09-12T04:12:57.517Z,7.85
2022-09-12T04:15:25.790Z,7.35
2022-09-12T04:17:53.730Z,7.40
2022-09-12T04:20:21.984Z,7.45
2022-09-12T04:22:49.960Z,8.25
2022-09-12T04:25:17.567Z,8.13
2022-09-12T04:27:47.644Z,8.13
2022-09-12T04:30:14.318Z,8.05
2022-09-12T04:32:42.248Z,8.55
2022-09-12T04:35:10.434Z,8.35
2022-09-12T04:37:38.197Z,8.25
2022-09-12T04:40:05.184Z,8.73
2022-09-12T04:42:31.870Z,9.02
2022-09-12T04:44:59.746Z,9.27
2022-09-12T04:47:28.211Z,10.07
2022-09-12T04:49:55.903Z,10.20
2022-09-12T04:52:23.950Z,9.23
2022-09-12T04:54:50.756Z,10.32
2022-09-12T04:57:19.061Z,10.55
2022-09-12T04:59:47.033Z,10.02
2022-09-12T05:02:15.048Z,9.68
2022-09-12T05:04:45.348Z,10.13
2022-09-12T05:07:15.499Z,10.40
2022-09-12T05:09:43.459Z,10.68
2022-09-12T05:12:11.620Z,10.48
2022-09-12T05:14:38.280Z,10.23
2022-09-12T05:17:05.432Z,9.85
2022-09-12T05:19:33.364Z,9.70
2022-09-12T05:22:01.206Z,10.25
2022-09-12T05:24:29.169Z,10.35
2022-09-12T05:26:55.769Z,11.43
2022-09-12T05:29:24.209Z,9.80
2022-09-12T05:31:52.194Z,9.65
2022-09-12T05:34:21.323Z,10.27
2022-09-12T05:36:49.458Z,10.40
2022-09-12T05:39:17.417Z,10.27
2022-09-12T05:41:44.162Z,10.30
2022-09-12T05:44:13.516Z,8.93
2022-09-12T05:46:43.504Z,10.02
2022-09-12T05:49:13.684Z,10.23
2022-09-12T05:51:44.141Z,10.05
2022-09-12T05:54:14.793Z,10.25
2022-09-12T05:56:43.614Z,10.20
2022-09-12T05:59:20.051Z,9.82
2022-09-12T06:01:48.986Z,9.55
2022-09-12T06:04:17.223Z,10.13
2022-09-12T06:06:46.210Z,9.88
2022-09-12T06:09:15.862Z,10.15
2022-09-12T06:11:45.717Z,9.85
2022-09-12T06:14:16.619Z,10.63
2022-09-12T06:16:44.379Z,9.57
2022-09-12T06:19:20.652Z,9.60
2022-09-12T06:21:48.064Z,9.85
2022-09-12T06:24:20.383Z,10.13
2022-09-12T06:26:48.729Z,10.90
2022-09-12T06:29:16.757Z,9.20
2022-09-12T06:31:53.912Z,9.27
2022-09-12T06:34:24.760Z,9.43
2022-09-12T06:36:51.350Z,9.75
2022-09-12T06:39:20.301Z,9.70
2022-09-12T06:41:47.805Z,10.60
2022-09-12T06:44:21.109Z,10.60
2022-09-12T06:46:49.517Z,10.10
2022-09-12T06:49:17.567Z,10.70
2022-09-12T06:51:44.369Z,10.30
2022-09-12T06:54:15.525Z,10.38
2022-09-12T06:56:44.632Z,11.18
2022-09-12T06:59:12.692Z,10.32
2022-09-12T07:01:41.374Z,10.90
2022-09-12T07:04:09.616Z,10.38
2022-09-12T07:06:38.728Z,11.15
2022-09-12T07:09:09.360Z,10.90
2022-09-12T07:11:38.489Z,11.50
2022-09-12T07:14:08.549Z,9.95
2022-09-12T07:16:36.994Z,9.48
2022-09-12T07:19:07.911Z,9.10
2022-09-12T07:21:34.992Z,9.98
2022-09-12T07:24:03.189Z,9.85
2022-09-12T07:26:31.496Z,9.60
2022-09-12T07:31:46.918Z,11.50
2022-09-12T07:34:13.749Z,10.20
2022-09-12T07:36:41.595Z,8.80
2022-09-12T07:39:09.304Z,8.75
2022-09-12T07:41:37.258Z,8.23
2022-09-12T07:44:04.874Z,8.10
2022-09-12T07:46:32.793Z,8.55
2022-09-12T07:49:01.087Z,9.38
2022-09-12T07:51:30.370Z,9.40
2022-09-12T07:53:59.143Z,7.93
2022-09-12T07:56:32.706Z,8.10
2022-09-12T07:59:05.139Z,7.38
2022-09-12T08:01:32.923Z,6.80
2022-09-12T08:04:04.106Z,7.05
2022-09-12T08:06:34.235Z,7.53
2022-09-12T08:09:12.884Z,6.80
2022-09-12T08:11:40.772Z,6.78
2022-09-12T08:14:08.622Z,6.75
2022-09-12T08:16:38.226Z,7.15
2022-09-12T08:19:27.439Z,7.13
2022-09-12T08:21:55.415Z,6.82
2022-09-12T08:24:23.109Z,6.25
2022-09-12T08:26:51.218Z,6.45
2022-09-12T08:29:18.929Z,6.25
2022-09-12T08:31:48.581Z,6.07
2022-09-12T08:34:18.962Z,4.95
2022-09-12T08:36:48.599Z,4.68
2022-09-12T08:39:18.946Z,4.50
2022-09-12T08:41:49.693Z,5.18
2022-09-12T08:44:50.809Z,4.00
2022-09-12T08:47:39.970Z,4.15
2022-09-12T08:50:17.452Z,3.80
2022-09-12T08:53:04.501Z,3.58
2022-09-12T08:55:41.239Z,3.72
2022-09-12T08:58:21.755Z,3.67
2022-09-12T09:01:06.904Z,3.88
2022-09-12T09:03:57.910Z,4.07
2022-09-12T09:06:55.784Z,3.20
2022-09-12T09:09:48.744Z,2.50
2022-09-12T09:12:41.658Z,2.67
2022-09-12T09:15:34.199Z,2.10
2022-09-12T09:18:08.761Z,1.73
2022-09-12T09:20:56.315Z,2.53
2022-09-12T09:23:40.987Z,2.65
2022-09-12T09:26:54.109Z,2.50
2022-09-12T09:29:33.825Z,2.80
2022-09-12T09:32:09.467Z,2.15
2022-09-12T09:34:42.019Z,1.90
2022-09-12T09:37:30.221Z,2.03
2022-09-12T09:40:23.608Z,1.50
2022-09-12T09:43:16.948Z,1.23
2022-09-12T09:45:47.273Z,1.38
2022-09-12T09:48:22.409Z,1.25
2022-09-12T09:50:50.120Z,0.93
2022-09-12T09:53:45.430Z,1.10
2022-09-12T09:56:35.621Z,1.58
2022-09-12T09:59:31.706Z,1.92
2022-09-12T10:02:13.624Z,1.70
2022-09-12T10:04:52.908Z,1.60
2022-09-12T10:07:21.367Z,1.85
2022-09-12T10:10:20.077Z,1.38
2022-09-12T10:12:47.198Z,1.70
2022-09-12T10:15:28.307Z,1.60
2022-09-12T10:17:56.446Z,1.40
2022-09-12T10:20:44.159Z,1.52
2022-09-12T10:23:34.038Z,1.33
2022-09-12T10:26:05.020Z,1.70
2022-09-12T10:28:41.900Z,1.80
2022-09-12T10:31:14.529Z,1.58
2022-09-12T10:33:49.081Z,1.65
2022-09-12T10:36:17.390Z,1.27
2022-09-12T10:38:57.795Z,1.30
2022-09-12T10:41:24.924Z,1.25
2022-09-12T10:43:51.670Z,1.05
2022-09-12T10:46:24.308Z,1.20
2022-09-12T10:49:13.361Z,1.42
2022-09-12T10:51:39.976Z,1.10
2022-09-12T10:54:10.229Z,1.55
2022-09-12T10:56:47.817Z,1.38
2022-09-12T10:59:56.392Z,1.92
2022-09-12T11:02:48.552Z,1.42
2022-09-12T11:05:41.121Z,1.58
2022-09-12T11:08:26.675Z,1.20
2022-09-12T11:11:23.794Z,1.40
2022-09-12T11:14:09.203Z,1.42
2022-09-12T11:17:02.075Z,1.70
2022-09-12T11:20:01.014Z,1.50
2022-09-12T11:22:42.104Z,2.00
2022-09-12T11:25:34.648Z,1.60
2022-09-12T11:28:07.217Z,2.05
2022-09-12T11:31:00.706Z,2.10
2022-09-12T11:33:50.007Z,2.28
2022-09-12T11:36:56.648Z,2.53
2022-09-12T11:39:37.972Z,2.17
2022-09-12T11:42:21.594Z,2.10
2022-09-12T11:45:01.104Z,1.85
2022-09-12T11:47:31.411Z,2.50
2022-09-12T11:50:03.586Z,1.90
2022-09-12T11:52:37.705Z,2.10
2022-09-12T11:55:31.065Z,2.10
2022-09-12T11:57:58.321Z,1.67
2022-09-12T12:00:28.027Z,1.60
2022-09-12T12:03:20.116Z,1.70
2022-09-12T12:06:09.210Z,2.17
2022-09-12T12:08:43.289Z,1.85
2022-09-12T12:11:12.335Z,1.48
2022-09-12T12:13:54.040Z,2.03
2022-09-12T12:16:37.641Z,1.27
2022-09-12T12:19:27.409Z,1.20
2022-09-12T12:22:03.499Z,1.20
2022-09-12T12:24:32.769Z,1.27
2022-09-12T12:27:24.784Z,1.45
2022-09-12T12:29:51.483Z,1.20
2022-09-12T12:32:22.937Z,1.23
2022-09-12T12:35:01.168Z,1.50
2022-09-12T12:37:30.790Z,1.48
2022-09-12T12:40:20.758Z,1.38
2022-09-12T12:42:47.350Z,1.20
2022-09-12T12:45:29.120Z,1.60
2022-09-12T12:48:05.058Z,1.67
2022-09-12T12:50:36.141Z,1.30
2022-09-12T12:53:17.843Z,0.80
2022-09-12T12:55:44.441Z,0.93
2022-09-12T12:58:39.583Z,1.05
2022-09-12T13:01:22.513Z,1.30
2022-09-12T13:04:17.772Z,1.02
2022-09-12T13:06:56.824Z,0.82
2022-09-12T13:09:34.436Z,1.20
2022-09-12T13:12:25.417Z,1.00
2022-09-12T13:15:00.369Z,1.27
2022-09-12T13:17:39.740Z,1.00
2022-09-12T13:20:30.408Z,0.93
2022-09-12T13:22:57.852Z,1.20
2022-09-12T13:25:36.457Z,1.27
2022-09-12T13:28:06.101Z,0.90
2022-09-12T13:30:37.331Z,0.95
2022-09-12T13:33:37.143Z,1.10
2022-09-12T13:36:16.314Z,1.05
2022-09-12T13:38:55.308Z,1.10
2022-09-12T13:41:47.035Z,1.00
2022-09-12T13:44:18.703Z,0.90
2022-09-12T13:46:46.598Z,0.90
2022-09-12T13:49:25.221Z,0.88
2022-09-12T13:52:04.176Z,1.30
2022-09-12T13:54:33.930Z,1.90
2022-09-12T13:57:00.538Z,1.25
2022-09-12T13:59:27.229Z,1.10
2022-09-12T14:01:55.257Z,0.80
2022-09-12T14:04:25.857Z,1.98
2022-09-12T14:06:53.708Z,1.25
2022-09-12T14:09:32.074Z,1.10
2022-09-12T14:11:59.320Z,1.30
2022-09-12T14:14:34.064Z,1.20
2022-09-12T14:17:34.445Z,1.07
2022-09-12T14:20:07.359Z,1.23
2022-09-12T14:22:35.065Z,1.95
2022-09-12T14:25:03.630Z,1.00
2022-09-12T14:27:54.381Z,0.90
2022-09-12T14:30:30.017Z,1.10
2022-09-12T14:35:29.414Z,1.05
2022-09-12T14:37:57.519Z,0.90
2022-09-12T14:40:25.632Z,1.02
2022-09-12T14:42:55.212Z,1.20
2022-09-12T14:45:31.966Z,1.02
2022-09-12T14:47:59.249Z,1.08
2022-09-12T14:50:29.661Z,1.10
2022-09-12T14:53:31.830Z,0.80
2022-09-12T14:56:09.723Z,1.10
2022-09-12T14:58:37.330Z,1.25
2022-09-12T15:01:07.296Z,1.20
2022-09-12T15:03:43.063Z,1.10
2022-09-12T15:06:24.972Z,1.15
2022-09-12T15:08:55.130Z,1.10
2022-09-12T15:11:22.318Z,1.05
2022-09-12T15:13:49.005Z,1.38
2022-09-12T15:16:17.045Z,1.08
2022-09-12T15:18:44.929Z,0.90
2022-09-12T15:21:18.475Z,1.17
2022-09-12T15:23:52.895Z,0.90
2022-09-12T15:26:22.575Z,0.90
2022-09-12T15:28:51.145Z,1.23
2022-09-12T15:31:26.793Z,0.90
2022-09-12T15:36:23.982Z,1.00
2022-09-12T15:38:53.037Z,1.05
2022-09-12T15:41:39.126Z,0.98
2022-09-12T15:46:38.612Z,1.17
2022-09-12T15:49:06.710Z,1.10
2022-09-12T15:51:34.629Z,0.90
2022-09-12T15:54:04.402Z,1.40
2022-09-12T15:56:31.199Z,1.60
2022-09-12T15:59:00.224Z,1.80
2022-09-12T16:01:29.200Z,1.30
2022-09-12T16:03:58.320Z,1.65
2022-09-12T16:06:25.042Z,1.30
2022-09-12T16:08:51.665Z,1.10
2022-09-12T16:11:22.148Z,1.30
2022-09-12T16:13:52.601Z,1.20
2022-09-12T16:16:20.785Z,1.50
2022-09-12T16:18:48.608Z,1.33
2022-09-12T16:21:16.062Z,2.00
2022-09-12T16:23:47.175Z,1.80
2022-09-12T16:26:16.642Z,1.80
2022-09-12T16:28:45.273Z,3.00
2022-09-12T16:31:14.152Z,3.00
2022-09-12T16:33:41.069Z,1.98
2022-09-12T16:36:14.673Z,2.30
2022-09-12T16:38:49.682Z,2.00
2022-09-12T16:41:20.002Z,1.98
2022-09-12T16:43:47.488Z,2.38
2022-09-12T16:46:23.913Z,2.33
2022-09-12T16:48:54.687Z,1.90
2022-09-12T16:51:26.976Z,4.05
2022-09-12T16:53:57.737Z,3.13
2022-09-12T16:56:25.811Z,4.53
2022-09-12T16:58:54.643Z,2.90
2022-09-12T17:01:24.812Z,1.77
2022-09-12T17:03:58.693Z,2.60
2022-09-12T17:06:27.955Z,2.90
2022-09-12T17:08:58.727Z,3.28
2022-09-12T17:11:30.355Z,4.07
2022-09-12T17:14:04.933Z,4.00
2022-09-12T17:16:35.738Z,4.38
2022-09-12T17:19:03.007Z,3.75
2022-09-12T17:21:31.219Z,4.35
2022-09-12T17:23:59.075Z,4.57
2022-09-12T17:26:26.837Z,4.15
2022-09-12T17:29:00.639Z,4.60
2022-09-12T17:31:39.573Z,4.90
2022-09-12T17:34:08.565Z,4.75
2022-09-12T17:36:44.961Z,5.60
2022-09-12T17:39:19.361Z,5.82
2022-09-12T17:41:46.368Z,5.00
2022-09-12T17:44:15.419Z,7.43
2022-09-12T17:46:43.568Z,5.28
2022-09-12T17:49:17.345Z,5.05
2022-09-12T17:51:45.620Z,7.13
2022-09-12T17:54:18.111Z,24.88
2022-09-12T17:56:47.270Z,8.23
2022-09-12T17:59:18.159Z,7.20
2022-09-12T18:01:45.230Z,7.10
2022-09-12T18:04:13.458Z,7.20
2022-09-12T18:06:40.200Z,7.22
2022-09-12T18:09:09.485Z,12.25
2022-09-12T18:11:37.337Z,7.75
2022-09-12T18:14:05.667Z,7.75
2022-09-12T18:16:32.268Z,8.40
2022-09-12T18:18:59.614Z,11.07
2022-09-12T18:21:28.968Z,10.63
2022-09-12T18:23:56.957Z,9.57
2022-09-12T18:26:27.322Z,8.40
2022-09-12T18:28:55.240Z,9.07
2022-09-12T18:31:30.373Z,9.45
2022-09-12T18:33:59.098Z,8.50
2022-09-12T18:36:25.927Z,7.93
2022-09-12T18:38:53.860Z,7.75
2022-09-12T18:41:23.071Z,8.85
2022-09-12T18:43:55.001Z,8.20
2022-09-12T18:46:22.069Z,7.93
2022-09-12T18:48:48.739Z,7.50
2022-09-12T18:51:19.064Z,8.60
2022-09-12T18:53:54.387Z,8.98
2022-09-12T18:56:24.628Z,8.55
2022-09-12T18:58:55.983Z,8.82
2022-09-12T19:01:37.511Z,9.18
2022-09-12T19:04:07.895Z,9.05
2022-09-12T19:06:39.817Z,8.98
2022-09-12T19:09:09.499Z,10.45
2022-09-12T19:11:40.094Z,10.25
2022-09-12T19:14:08.463Z,9.73
2022-09-12T19:16:37.486Z,9.20
2022-09-12T19:19:05.518Z,8.20
2022-09-12T19:21:34.465Z,8.15
2022-09-12T19:24:06.101Z,7.80
2022-09-12T19:26:34.207Z,8.80
2022-09-12T19:29:01.211Z,8.80
2022-09-12T19:31:27.862Z,8.48
2022-09-12T19:34:02.819Z,7.97
2022-09-12T19:36:44.892Z,8.43
2022-09-12T19:39:13.478Z,9.00
2022-09-12T19:41:40.110Z,8.50
2022-09-12T19:44:07.156Z,8.38
2022-09-12T19:46:35.116Z,9.02
2022-09-12T19:49:03.530Z,8.88
2022-09-12T19:51:31.777Z,8.60
2022-09-12T19:53:59.759Z,7.90
2022-09-12T19:56:27.908Z,8.23
2022-09-12T19:58:56.943Z,7.97
2022-09-12T20:01:27.244Z,8.73
2022-09-12T20:03:56.557Z,9.55
2022-09-12T20:06:25.347Z,8.02
2022-09-12T20:08:53.447Z,9.13
2022-09-12T20:11:23.225Z,8.45
2022-09-12T20:13:51.691Z,7.93
2022-09-12T20:16:23.144Z,8.15
2022-09-12T20:19:00.196Z,8.45
2022-09-12T20:21:30.495Z,15.27
2022-09-12T20:24:10.396Z,12.95
2022-09-12T20:26:38.923Z,9.38
2022-09-12T20:29:07.459Z,7.80
2022-09-12T20:31:35.739Z,13.95
2022-09-12T20:34:04.662Z,8.05
2022-09-12T20:36:32.644Z,10.40
2022-09-12T20:39:01.431Z,9.30
2022-09-12T20:41:30.390Z,8.23
2022-09-12T20:43:58.784Z,7.93
2022-09-12T20:46:28.392Z,8.32
2022-09-12T20:48:56.571Z,9.13
2022-09-12T20:51:24.665Z,9.43
2022-09-12T20:54:02.046Z,10.60
2022-09-12T20:56:34.855Z,11.18
2022-09-12T20:59:05.214Z,9.07
2022-09-12T21:01:33.861Z,9.15
2022-09-12T21:04:04.575Z,7.70
2022-09-12T21:06:32.749Z,7.70
2022-09-12T21:08:59.360Z,10.35
2022-09-12T21:11:27.413Z,8.18
2022-09-12T21:13:55.310Z,8.32
2022-09-12T21:16:23.837Z,8.07
2022-09-12T21:18:57.395Z,8.70
2022-09-12T21:21:26.297Z,18.52
2022-09-12T21:23:52.926Z,14.85
2022-09-12T21:26:20.850Z,11.48
2022-09-12T21:28:49.124Z,10.57
2022-09-12T21:31:16.915Z,8.40
2022-09-12T21:33:45.595Z,8.35
2022-09-12T21:36:13.278Z,8.40
2022-09-12T21:38:43.428Z,7.70
2022-09-12T21:41:17.532Z,7.32
2022-09-12T21:43:45.707Z,7.05
2022-09-12T21:46:15.848Z,6.93
2022-09-12T21:48:43.649Z,7.10
2022-09-12T21:51:11.446Z,7.13
2022-09-12T21:53:38.059Z,6.65
2022-09-12T21:56:06.846Z,6.78
2022-09-12T21:58:33.433Z,6.97
2022-09-12T22:01:01.549Z,6.53
2022-09-12T22:03:30.200Z,6.35
2022-09-12T22:06:03.910Z,6.72
2022-09-12T22:08:33.749Z,6.57
2022-09-12T22:11:05.795Z,9.00
2022-09-12T22:13:33.862Z,6.72
2022-09-12T22:16:04.761Z,6.72
2022-09-12T22:18:36.339Z,6.32
2022-09-12T22:21:07.327Z,6.15
2022-09-12T22:23:34.031Z,6.07
2022-09-12T22:26:02.026Z,6.00
2022-09-12T22:28:28.633Z,6.13
2022-09-12T22:30:56.763Z,5.75
2022-09-12T22:33:24.785Z,5.47
2022-09-12T22:35:53.023Z,6.00
2022-09-12T22:38:20.973Z,5.28
2022-09-12T22:40:47.616Z,5.85
2022-09-12T22:43:15.882Z,5.50
2022-09-12T22:45:42.511Z,5.70
2022-09-12T22:48:10.263Z,5.45
2022-09-12T22:50:38.259Z,5.60
2022-09-12T22:53:06.265Z,5.20
2022-09-12T22:55:32.865Z,5.20
2022-09-12T22:58:00.606Z,5.80
2022-09-12T23:00:29.373Z,5.70
2022-09-12T23:02:57.536Z,5.40
2022-09-12T23:05:25.453Z,5.50
2022-09-12T23:07:53.174Z,5.28
2022-09-12T23:10:22.096Z,5.88
2022-09-12T23:12:48.736Z,5.40
2022-09-12T23:15:15.403Z,5.68
2022-09-12T23:17:43.062Z,6.05
2022-09-12T23:20:10.719Z,4.88
2022-09-12T23:22:38.689Z,4.97
2022-09-12T23:25:06.961Z,4.90
2022-09-12T23:27:33.580Z,5.20
2022-09-12T23:30:01.215Z,4.93
2022-09-12T23:32:28.840Z,5.20
2022-09-12T23:34:55.697Z,5.20
2022-09-12T23:37:23.521Z,4.97
2022-09-12T23:39:51.505Z,5.07
2022-09-12T23:42:19.351Z,5.35
2022-09-12T23:44:45.949Z,5.05
2022-09-12T23:47:12.584Z,5.30
2022-09-12T23:49:40.815Z,5.00
2022-09-12T23:52:07.452Z,5.00
2022-09-12T23:54:35.239Z,4.95
2022-09-12T23:57:03.186Z,5.05
2022-09-12T23:59:29.814Z,5.20
